Portada
METAR-TAF:

METAR-TAF

Aeropuertos :

Khorramabad, Irán

latitud: 33-26-11N, longitud: 048-17-09E, altitud: 1155 m

Observación

El informe se hizo hace 20 horas y 9 minutos, a las 03:00 UTC
Viento 4 kt del este-sureste
Temperatura 5°C
Humedad 93%
Presión 1018 hPa
Visibilidad 10 km o más
Nubes dispersas a una altura de 4000 ft
Cielo nuboso a una altura de 9000 ft

METAR: OICK 310300Z 12004KT 9999 SCT040 BKN090 05/04 Q1018

Hora: 03:39 (23:09 UTC)


TAF: falta

Observaciones y pronósticos meteorológicos de más de 4000 aeropuertos (mensajes METAR y TAF).

Los puntos amarillos y rojos representan las estaciones disponibles.

Ponga el ratón en el punto deseado para ver el nombre de la estación.

Haga clic para ver las observaciones y los pronósticos meteorológicos.

Para cambiar el mapa : haga clic en los botones verdes con una cruz de color negro para hacer un zoom, en el botón verde con un guión para alejar o en las flechas verdes para mapas adyacentes.


METAR-TAF: